Startpagina
METAR-TAF:

METAR-TAF

Vliegvelden :

Vliegbasis Bevekom

Bevekom, België

breedte: 50-45N, lengte: 004-46E, hoogte: 105 m

Actueel weer

Dit bericht is 45 minuten geleden gemaakt, om 12:55 UTC
Wind 16 kt uit het westzuidwesten
Temperatuur 10°C
Vochtigheid 87%
Druk 1024 hPa
Zicht 10 km of meer

METAR: EBBE 291255Z AUTO 24016KT 9999 OVC011/// 10/08 Q1024 GRN

Tijdstip: 14:40 (13:40 UTC)

Verwachting

Dit bericht is 21 uur en het 59 minuten geleden gemaakt, om 15:41 UTC
Verwachting geldig van 28 om 19 UTC tot 29 om 07 UTC
Wind 7 kt uit het westzuidwesten
Zicht: 4000 m
Gebroken wolken op 400 ft
Geheel bewolkt op 600 ft
nevel
Tijdelijke
van 28 om 19 UTC tot 28 om 21 UTC
Zicht: 5000 m
Geheel bewolkt op 700 ft
Wijzigt naar
van 29 om 02 UTC tot 29 om 04 UTC
Zicht: 2000 m
Geheel bewolkt op 400 ft
lichte motregen

TAF: EBBE 281541Z 2819/2907 24007KT 4000 BR BKN004 OVC006 TEMPO 2819/2821 5000 OVC007 BECMG 2902/2904 2000 -DZ OVC004

Waarnemingen en weersverwachtingen van meer dan 4000 vliegvelden (METAR en TAF).

De beschikbare stations zijn de gele en rode punten op de kaart.

Ga met uw muis naar het station om de naam te zien.

Klik dan om waarnemingen en weersverwachtingen te zien.

kaart wijzigen: klik op de groene knoppen met een zwart kruis om in te zoomen, op de groene knop met een streepje om uit te zoomen of op de groene pijlen voor aangrenzende kaarten.


METAR-TAF: